sensor_id;sensor_type;location;lat;lon;timestamp;pressure;altitude;pressure_sealevel;temperature;humidity
72636;BME280;60679;48.888;15.544;2023-03-14T00:02:08;94523.09;;;3.19;64.59
72636;BME280;60679;48.888;15.544;2023-03-14T00:04:34;94510.28;;;3.10;64.56
72636;BME280;60679;48.888;15.544;2023-03-14T00:06:59;94511.75;;;3.06;64.81
72636;BME280;60679;48.888;15.544;2023-03-14T00:09:25;94510.78;;;3.00;64.63
72636;BME280;60679;48.888;15.544;2023-03-14T00:11:52;94509.66;;;2.89;64.84
72636;BME280;60679;48.888;15.544;2023-03-14T00:14:18;94515.56;;;2.91;65.06
72636;BME280;60679;48.888;15.544;2023-03-14T00:16:46;94510.25;;;2.91;64.89
72636;BME280;60679;48.888;15.544;2023-03-14T00:19:12;94505.50;;;2.93;64.79
72636;BME280;60679;48.888;15.544;2023-03-14T00:21:37;94495.75;;;2.87;64.96
72636;BME280;60679;48.888;15.544;2023-03-14T00:24:03;94494.16;;;2.80;64.99
72636;BME280;60679;48.888;15.544;2023-03-14T00:26:28;94488.53;;;2.70;64.98
72636;BME280;60679;48.888;15.544;2023-03-14T00:28:54;94486.34;;;2.60;65.02
72636;BME280;60679;48.888;15.544;2023-03-14T00:31:19;94474.13;;;2.53;65.19
72636;BME280;60679;48.888;15.544;2023-03-14T00:33:45;94479.91;;;2.50;65.30
72636;BME280;60679;48.888;15.544;2023-03-14T00:36:13;94487.50;;;2.46;65.37
72636;BME280;60679;48.888;15.544;2023-03-14T00:38:40;94486.91;;;2.44;65.53
72636;BME280;60679;48.888;15.544;2023-03-14T00:41:08;94510.72;;;2.39;65.32
72636;BME280;60679;48.888;15.544;2023-03-14T00:43:33;94507.16;;;2.20;65.56
72636;BME280;60679;48.888;15.544;2023-03-14T00:45:59;94491.84;;;2.16;65.89
72636;BME280;60679;48.888;15.544;2023-03-14T00:48:24;94468.44;;;2.24;65.94
72636;BME280;60679;48.888;15.544;2023-03-14T00:50:50;94472.50;;;2.27;65.69
72636;BME280;60679;48.888;15.544;2023-03-14T00:53:16;94490.13;;;2.28;65.86
72636;BME280;60679;48.888;15.544;2023-03-14T00:55:42;94501.50;;;2.10;65.71
72636;BME280;60679;48.888;15.544;2023-03-14T00:58:08;94493.56;;;2.04;65.98
72636;BME280;60679;48.888;15.544;2023-03-14T01:00:35;94482.91;;;2.04;66.03
72636;BME280;60679;48.888;15.544;2023-03-14T01:03:01;94474.06;;;2.10;66.26
72636;BME280;60679;48.888;15.544;2023-03-14T01:05:27;94451.69;;;2.17;66.20
72636;BME280;60679;48.888;15.544;2023-03-14T01:07:52;94490.97;;;2.22;66.13
72636;BME280;60679;48.888;15.544;2023-03-14T01:10:17;94517.09;;;2.07;66.04
72636;BME280;60679;48.888;15.544;2023-03-14T01:12:43;94495.03;;;2.00;66.33
72636;BME280;60679;48.888;15.544;2023-03-14T01:15:09;94490.91;;;2.04;66.40
72636;BME280;60679;48.888;15.544;2023-03-14T01:17:34;94484.94;;;2.08;66.33
72636;BME280;60679;48.888;15.544;2023-03-14T01:20:00;94480.22;;;2.10;66.39
72636;BME280;60679;48.888;15.544;2023-03-14T01:22:26;94500.69;;;2.10;66.43
72636;BME280;60679;48.888;15.544;2023-03-14T01:24:52;94541.88;;;2.01;66.35
72636;BME280;60679;48.888;15.544;2023-03-14T01:27:17;94572.47;;;1.92;66.67
72636;BME280;60679;48.888;15.544;2023-03-14T01:29:43;94593.34;;;1.88;66.43
72636;BME280;60679;48.888;15.544;2023-03-14T01:32:08;94555.94;;;1.77;66.59
72636;BME280;60679;48.888;15.544;2023-03-14T01:34:33;94546.53;;;1.81;67.01
72636;BME280;60679;48.888;15.544;2023-03-14T01:36:59;94551.03;;;1.80;66.80
72636;BME280;60679;48.888;15.544;2023-03-14T01:39:24;94582.13;;;1.80;66.94
72636;BME280;60679;48.888;15.544;2023-03-14T01:41:50;94567.41;;;1.77;67.01
72636;BME280;60679;48.888;15.544;2023-03-14T01:44:15;94519.09;;;1.80;67.13
72636;BME280;60679;48.888;15.544;2023-03-14T01:46:44;94535.63;;;1.89;67.15
72636;BME280;60679;48.888;15.544;2023-03-14T01:49:17;94525.06;;;2.07;67.18
72636;BME280;60679;48.888;15.544;2023-03-14T01:51:49;94559.81;;;2.18;67.11
72636;BME280;60679;48.888;15.544;2023-03-14T01:56:43;94551.19;;;2.23;67.11
72636;BME280;60679;48.888;15.544;2023-03-14T01:59:10;94546.34;;;2.13;67.38
72636;BME280;60679;48.888;15.544;2023-03-14T02:01:36;94551.25;;;2.10;67.30
72636;BME280;60679;48.888;15.544;2023-03-14T02:04:04;94515.50;;;1.99;67.25
72636;BME280;60679;48.888;15.544;2023-03-14T02:06:38;94523.56;;;1.86;67.61
72636;BME280;60679;48.888;15.544;2023-03-14T02:09:05;94506.63;;;1.81;67.69
72636;BME280;60679;48.888;15.544;2023-03-14T02:11:30;94493.34;;;1.74;67.67
72636;BME280;60679;48.888;15.544;2023-03-14T02:13:57;94492.53;;;1.73;67.77
72636;BME280;60679;48.888;15.544;2023-03-14T02:16:24;94506.41;;;1.75;67.80
72636;BME280;60679;48.888;15.544;2023-03-14T02:18:49;94515.03;;;1.78;67.86
72636;BME280;60679;48.888;15.544;2023-03-14T02:21:31;94521.38;;;1.77;67.75
72636;BME280;60679;48.888;15.544;2023-03-14T02:27:10;94527.69;;;1.82;67.87
72636;BME280;60679;48.888;15.544;2023-03-14T02:29:40;94527.84;;;1.87;67.89
72636;BME280;60679;48.888;15.544;2023-03-14T02:32:09;94539.72;;;1.91;68.09
72636;BME280;60679;48.888;15.544;2023-03-14T02:34:36;94548.28;;;1.93;68.12
72636;BME280;60679;48.888;15.544;2023-03-14T02:37:02;94551.19;;;1.92;68.00
72636;BME280;60679;48.888;15.544;2023-03-14T02:39:35;94547.88;;;1.96;68.14
72636;BME280;60679;48.888;15.544;2023-03-14T02:42:01;94547.59;;;2.04;68.23
72636;BME280;60679;48.888;15.544;2023-03-14T02:44:27;94544.31;;;2.09;68.22
72636;BME280;60679;48.888;15.544;2023-03-14T02:46:52;94544.91;;;2.11;68.16
72636;BME280;60679;48.888;15.544;2023-03-14T02:49:18;94533.44;;;2.10;68.17
72636;BME280;60679;48.888;15.544;2023-03-14T02:51:44;94512.38;;;2.09;68.23
72636;BME280;60679;48.888;15.544;2023-03-14T02:54:10;94507.25;;;2.07;68.17
72636;BME280;60679;48.888;15.544;2023-03-14T02:56:36;94498.06;;;2.03;68.21
72636;BME280;60679;48.888;15.544;2023-03-14T02:59:03;94506.50;;;2.00;68.33
72636;BME280;60679;48.888;15.544;2023-03-14T03:01:28;94505.88;;;1.98;68.29
72636;BME280;60679;48.888;15.544;2023-03-14T03:03:54;94507.72;;;1.98;68.48
72636;BME280;60679;48.888;15.544;2023-03-14T03:06:20;94494.88;;;1.95;68.38
72636;BME280;60679;48.888;15.544;2023-03-14T03:08:45;94506.97;;;1.91;68.49
72636;BME280;60679;48.888;15.544;2023-03-14T03:11:10;94506.38;;;1.89;68.50
72636;BME280;60679;48.888;15.544;2023-03-14T03:13:36;94517.63;;;1.84;68.61
72636;BME280;60679;48.888;15.544;2023-03-14T03:16:02;94530.94;;;1.84;68.70
72636;BME280;60679;48.888;15.544;2023-03-14T03:18:27;94556.09;;;1.88;68.63
72636;BME280;60679;48.888;15.544;2023-03-14T03:20:53;94546.28;;;1.89;68.77
72636;BME280;60679;48.888;15.544;2023-03-14T03:23:18;94552.38;;;1.89;69.14
72636;BME280;60679;48.888;15.544;2023-03-14T03:25:48;94554.06;;;1.84;68.85
72636;BME280;60679;48.888;15.544;2023-03-14T03:28:14;94556.72;;;1.84;68.84
72636;BME280;60679;48.888;15.544;2023-03-14T03:30:40;94553.88;;;1.85;68.71
72636;BME280;60679;48.888;15.544;2023-03-14T03:33:05;94543.63;;;1.89;68.87
72636;BME280;60679;48.888;15.544;2023-03-14T03:35:31;94537.06;;;1.85;68.90
72636;BME280;60679;48.888;15.544;2023-03-14T03:37:56;94518.88;;;1.82;68.90
72636;BME280;60679;48.888;15.544;2023-03-14T03:40:22;94507.22;;;1.83;69.00
72636;BME280;60679;48.888;15.544;2023-03-14T03:42:47;94498.00;;;1.85;68.98
72636;BME280;60679;48.888;15.544;2023-03-14T03:45:12;94499.56;;;1.93;68.95
72636;BME280;60679;48.888;15.544;2023-03-14T03:47:38;94499.97;;;1.96;68.78
72636;BME280;60679;48.888;15.544;2023-03-14T03:50:03;94497.47;;;2.01;69.13
72636;BME280;60679;48.888;15.544;2023-03-14T03:52:29;94496.03;;;2.05;69.04
72636;BME280;60679;48.888;15.544;2023-03-14T03:54:54;94517.50;;;2.04;69.11
72636;BME280;60679;48.888;15.544;2023-03-14T03:57:20;94528.59;;;2.01;69.54
72636;BME280;60679;48.888;15.544;2023-03-14T03:59:45;94526.75;;;2.01;69.25
72636;BME280;60679;48.888;15.544;2023-03-14T04:02:11;94516.69;;;2.03;69.19
72636;BME280;60679;48.888;15.544;2023-03-14T04:04:36;94506.59;;;2.12;69.29
72636;BME280;60679;48.888;15.544;2023-03-14T04:07:03;94513.09;;;2.22;69.09
72636;BME280;60679;48.888;15.544;2023-03-14T04:09:29;94502.03;;;2.25;69.06
72636;BME280;60679;48.888;15.544;2023-03-14T04:11:54;94495.44;;;2.28;69.09
72636;BME280;60679;48.888;15.544;2023-03-14T04:14:19;94478.81;;;2.32;69.27
72636;BME280;60679;48.888;15.544;2023-03-14T04:16:45;94477.34;;;2.37;69.35
72636;BME280;60679;48.888;15.544;2023-03-14T04:19:10;94483.66;;;2.42;69.32
72636;BME280;60679;48.888;15.544;2023-03-14T04:21:35;94467.44;;;2.44;69.31
72636;BME280;60679;48.888;15.544;2023-03-14T04:24:01;94456.41;;;2.40;69.42
72636;BME280;60679;48.888;15.544;2023-03-14T04:26:26;94453.97;;;2.39;69.42
72636;BME280;60679;48.888;15.544;2023-03-14T04:28:51;94467.88;;;2.41;69.40
72636;BME280;60679;48.888;15.544;2023-03-14T04:31:19;94459.25;;;2.45;69.53
72636;BME280;60679;48.888;15.544;2023-03-14T04:33:45;94475.38;;;2.50;69.51
72636;BME280;60679;48.888;15.544;2023-03-14T04:36:10;94497.72;;;2.49;69.91
72636;BME280;60679;48.888;15.544;2023-03-14T04:38:36;94523.97;;;2.46;69.57
72636;BME280;60679;48.888;15.544;2023-03-14T04:41:02;94507.50;;;2.55;69.74
72636;BME280;60679;48.888;15.544;2023-03-14T04:43:28;94482.34;;;2.51;69.59
72636;BME280;60679;48.888;15.544;2023-03-14T04:45:54;94495.28;;;2.48;69.71
72636;BME280;60679;48.888;15.544;2023-03-14T04:48:19;94520.94;;;2.42;69.70
72636;BME280;60679;48.888;15.544;2023-03-14T04:50:46;94527.13;;;2.36;69.89
72636;BME280;60679;48.888;15.544;2023-03-14T04:53:11;94523.22;;;2.39;69.63
72636;BME280;60679;48.888;15.544;2023-03-14T04:55:37;94518.16;;;2.30;69.86
72636;BME280;60679;48.888;15.544;2023-03-14T04:58:02;94499.78;;;2.22;69.96
72636;BME280;60679;48.888;15.544;2023-03-14T05:00:27;94503.50;;;2.15;69.90
72636;BME280;60679;48.888;15.544;2023-03-14T05:02:53;94501.28;;;2.12;69.93
72636;BME280;60679;48.888;15.544;2023-03-14T05:05:18;94495.75;;;2.13;70.11
72636;BME280;60679;48.888;15.544;2023-03-14T05:07:44;94499.41;;;2.19;70.08
72636;BME280;60679;48.888;15.544;2023-03-14T05:10:10;94491.81;;;2.22;69.87
72636;BME280;60679;48.888;15.544;2023-03-14T05:12:35;94496.03;;;2.30;69.82
72636;BME280;60679;48.888;15.544;2023-03-14T05:15:01;94478.38;;;2.36;69.89
72636;BME280;60679;48.888;15.544;2023-03-14T05:17:26;94467.88;;;2.41;70.09
72636;BME280;60679;48.888;15.544;2023-03-14T05:19:52;94468.03;;;2.46;70.30
72636;BME280;60679;48.888;15.544;2023-03-14T05:22:17;94464.72;;;2.50;70.04
72636;BME280;60679;48.888;15.544;2023-03-14T05:24:43;94455.88;;;2.56;70.10
72636;BME280;60679;48.888;15.544;2023-03-14T05:27:08;94455.44;;;2.59;70.06
72636;BME280;60679;48.888;15.544;2023-03-14T05:29:33;94453.75;;;2.65;70.06
72636;BME280;60679;48.888;15.544;2023-03-14T05:31:59;94437.31;;;2.68;69.94
72636;BME280;60679;48.888;15.544;2023-03-14T05:34:24;94428.66;;;2.72;69.99
72636;BME280;60679;48.888;15.544;2023-03-14T05:36:50;94441.75;;;2.74;69.67
72636;BME280;60679;48.888;15.544;2023-03-14T05:39:15;94465.13;;;2.72;69.85
72636;BME280;60679;48.888;15.544;2023-03-14T05:41:40;94475.41;;;2.68;69.74
72636;BME280;60679;48.888;15.544;2023-03-14T05:44:06;94466.19;;;2.71;69.96
72636;BME280;60679;48.888;15.544;2023-03-14T05:46:31;94467.22;;;2.88;70.00
72636;BME280;60679;48.888;15.544;2023-03-14T05:48:57;94472.81;;;3.05;69.87
72636;BME280;60679;48.888;15.544;2023-03-14T05:51:23;94465.38;;;3.25;70.02
72636;BME280;60679;48.888;15.544;2023-03-14T05:53:48;94461.56;;;3.50;69.73
72636;BME280;60679;48.888;15.544;2023-03-14T05:56:14;94459.06;;;3.56;69.47
72636;BME280;60679;48.888;15.544;2023-03-14T05:58:40;94444.75;;;3.50;69.35
72636;BME280;60679;48.888;15.544;2023-03-14T06:01:05;94455.22;;;3.52;69.43
72636;BME280;60679;48.888;15.544;2023-03-14T06:03:31;94462.00;;;3.66;69.26
72636;BME280;60679;48.888;15.544;2023-03-14T06:05:57;94463.59;;;3.85;69.38
72636;BME280;60679;48.888;15.544;2023-03-14T06:08:22;94454.63;;;3.79;69.07
72636;BME280;60679;48.888;15.544;2023-03-14T06:10:48;94455.81;;;3.83;69.33
72636;BME280;60679;48.888;15.544;2023-03-14T06:13:14;94464.91;;;3.94;69.29
72636;BME280;60679;48.888;15.544;2023-03-14T06:15:40;94479.56;;;4.03;69.31
72636;BME280;60679;48.888;15.544;2023-03-14T06:18:06;94488.97;;;4.05;69.16
72636;BME280;60679;48.888;15.544;2023-03-14T06:20:32;94504.88;;;4.00;69.33
72636;BME280;60679;48.888;15.544;2023-03-14T06:22:58;94499.59;;;3.94;69.41
72636;BME280;60679;48.888;15.544;2023-03-14T06:25:24;94491.28;;;4.02;69.41
72636;BME280;60679;48.888;15.544;2023-03-14T06:27:49;94497.94;;;4.11;69.28
72636;BME280;60679;48.888;15.544;2023-03-14T06:30:15;94493.56;;;4.28;69.25
72636;BME280;60679;48.888;15.544;2023-03-14T06:32:40;94489.31;;;4.50;69.35
72636;BME280;60679;48.888;15.544;2023-03-14T06:35:06;94495.72;;;4.73;69.25
72636;BME280;60679;48.888;15.544;2023-03-14T06:37:31;94479.34;;;4.92;69.31
72636;BME280;60679;48.888;15.544;2023-03-14T06:39:57;94467.72;;;5.10;69.12
72636;BME280;60679;48.888;15.544;2023-03-14T06:42:22;94456.81;;;5.40;68.93
72636;BME280;60679;48.888;15.544;2023-03-14T06:44:47;94458.72;;;5.67;68.64
72636;BME280;60679;48.888;15.544;2023-03-14T06:47:13;94462.50;;;5.95;68.90
72636;BME280;60679;48.888;15.544;2023-03-14T06:49:39;94459.56;;;6.24;68.74
72636;BME280;60679;48.888;15.544;2023-03-14T06:52:04;94457.50;;;6.60;68.55
72636;BME280;60679;48.888;15.544;2023-03-14T06:54:30;94462.69;;;6.83;68.52
72636;BME280;60679;48.888;15.544;2023-03-14T06:56:55;94457.78;;;7.13;68.37
72636;BME280;60679;48.888;15.544;2023-03-14T06:59:20;94460.25;;;7.58;67.77
72636;BME280;60679;48.888;15.544;2023-03-14T07:01:46;94459.25;;;7.86;67.67
72636;BME280;60679;48.888;15.544;2023-03-14T07:04:13;94456.75;;;8.01;67.89
72636;BME280;60679;48.888;15.544;2023-03-14T07:06:39;94456.97;;;8.21;67.96
72636;BME280;60679;48.888;15.544;2023-03-14T07:09:05;94432.38;;;8.34;68.08
72636;BME280;60679;48.888;15.544;2023-03-14T07:11:30;94425.97;;;8.40;68.18
72636;BME280;60679;48.888;15.544;2023-03-14T07:13:55;94426.31;;;8.49;67.94
72636;BME280;60679;48.888;15.544;2023-03-14T07:16:21;94422.09;;;8.58;68.19
72636;BME280;60679;48.888;15.544;2023-03-14T07:18:46;94420.28;;;8.68;67.98
72636;BME280;60679;48.888;15.544;2023-03-14T07:21:12;94426.59;;;8.84;68.05
72636;BME280;60679;48.888;15.544;2023-03-14T07:23:40;94434.34;;;8.81;68.34
72636;BME280;60679;48.888;15.544;2023-03-14T07:26:06;94440.66;;;8.91;68.00
72636;BME280;60679;48.888;15.544;2023-03-14T07:28:32;94439.34;;;8.99;68.06
72636;BME280;60679;48.888;15.544;2023-03-14T07:30:57;94446.91;;;9.02;67.96
72636;BME280;60679;48.888;15.544;2023-03-14T07:33:22;94447.56;;;8.82;68.19
72636;BME280;60679;48.888;15.544;2023-03-14T07:35:48;94451.50;;;8.69;68.52
72636;BME280;60679;48.888;15.544;2023-03-14T07:38:14;94462.53;;;8.68;68.38
72636;BME280;60679;48.888;15.544;2023-03-14T07:40:40;94464.16;;;8.69;68.71
72636;BME280;60679;48.888;15.544;2023-03-14T07:43:05;94450.75;;;8.74;68.47
72636;BME280;60679;48.888;15.544;2023-03-14T07:45:31;94447.56;;;8.82;68.50
72636;BME280;60679;48.888;15.544;2023-03-14T07:47:56;94455.47;;;8.94;68.29
72636;BME280;60679;48.888;15.544;2023-03-14T07:50:24;94441.75;;;8.95;67.95
72636;BME280;60679;48.888;15.544;2023-03-14T07:52:49;94431.56;;;9.02;67.46
72636;BME280;60679;48.888;15.544;2023-03-14T07:55:15;94423.09;;;9.25;66.86
72636;BME280;60679;48.888;15.544;2023-03-14T07:57:40;94432.47;;;9.65;66.30
72636;BME280;60679;48.888;15.544;2023-03-14T08:00:07;94440.84;;;9.73;66.17
72636;BME280;60679;48.888;15.544;2023-03-14T08:02:32;94441.69;;;9.79;66.31
72636;BME280;60679;48.888;15.544;2023-03-14T08:04:58;94445.16;;;9.79;66.42
72636;BME280;60679;48.888;15.544;2023-03-14T08:07:23;94439.91;;;10.05;65.90
72636;BME280;60679;48.888;15.544;2023-03-14T08:09:48;94440.19;;;10.13;65.73
72636;BME280;60679;48.888;15.544;2023-03-14T08:12:14;94427.78;;;10.12;65.86
72636;BME280;60679;48.888;15.544;2023-03-14T08:14:41;94425.84;;;10.08;66.03
72636;BME280;60679;48.888;15.544;2023-03-14T08:17:06;94436.88;;;9.91;66.47
72636;BME280;60679;48.888;15.544;2023-03-14T08:19:33;94431.97;;;9.78;66.88
72636;BME280;60679;48.888;15.544;2023-03-14T08:21:59;94430.34;;;9.77;67.13
72636;BME280;60679;48.888;15.544;2023-03-14T08:24:24;94434.16;;;9.86;66.65
72636;BME280;60679;48.888;15.544;2023-03-14T08:26:49;94443.34;;;9.90;66.74
72636;BME280;60679;48.888;15.544;2023-03-14T08:29:15;94441.69;;;9.84;66.74
72636;BME280;60679;48.888;15.544;2023-03-14T08:31:40;94440.91;;;9.88;66.67
72636;BME280;60679;48.888;15.544;2023-03-14T08:34:06;94436.59;;;9.88;66.62
72636;BME280;60679;48.888;15.544;2023-03-14T08:36:32;94437.66;;;9.86;66.60
72636;BME280;60679;48.888;15.544;2023-03-14T08:38:58;94434.16;;;9.86;66.68
72636;BME280;60679;48.888;15.544;2023-03-14T08:41:23;94435.50;;;9.88;66.68
72636;BME280;60679;48.888;15.544;2023-03-14T08:43:49;94433.88;;;9.82;66.53
72636;BME280;60679;48.888;15.544;2023-03-14T08:46:14;94452.16;;;9.70;66.84
72636;BME280;60679;48.888;15.544;2023-03-14T08:48:39;94451.56;;;9.63;66.89
72636;BME280;60679;48.888;15.544;2023-03-14T08:51:09;94457.47;;;9.55;67.13
72636;BME280;60679;48.888;15.544;2023-03-14T08:53:36;94484.63;;;9.49;67.22
72636;BME280;60679;48.888;15.544;2023-03-14T08:56:01;94489.47;;;9.42;67.23
72636;BME280;60679;48.888;15.544;2023-03-14T08:58:27;94499.41;;;9.41;67.26
72636;BME280;60679;48.888;15.544;2023-03-14T09:00:52;94496.44;;;9.43;67.35
72636;BME280;60679;48.888;15.544;2023-03-14T09:03:19;94488.16;;;9.49;67.07
72636;BME280;60679;48.888;15.544;2023-03-14T09:05:44;94493.88;;;9.63;66.91
72636;BME280;60679;48.888;15.544;2023-03-14T09:08:09;94492.66;;;9.85;66.56
72636;BME280;60679;48.888;15.544;2023-03-14T09:10:35;94493.84;;;10.10;66.07
72636;BME280;60679;48.888;15.544;2023-03-14T09:13:00;94484.22;;;10.24;65.69
72636;BME280;60679;48.888;15.544;2023-03-14T09:15:26;94488.03;;;10.33;65.60
72636;BME280;60679;48.888;15.544;2023-03-14T09:17:51;94490.44;;;10.39;65.43
72636;BME280;60679;48.888;15.544;2023-03-14T09:20:16;94489.66;;;10.44;65.33
72636;BME280;60679;48.888;15.544;2023-03-14T09:22:42;94490.16;;;10.36;65.37
72636;BME280;60679;48.888;15.544;2023-03-14T09:25:08;94490.72;;;10.33;65.56
72636;BME280;60679;48.888;15.544;2023-03-14T09:27:34;94489.09;;;10.32;65.54
72636;BME280;60679;48.888;15.544;2023-03-14T09:29:59;94496.06;;;10.23;65.65
72636;BME280;60679;48.888;15.544;2023-03-14T09:32:24;94494.72;;;10.25;65.89
72636;BME280;60679;48.888;15.544;2023-03-14T09:34:50;94486.41;;;10.37;65.56
72636;BME280;60679;48.888;15.544;2023-03-14T09:37:15;94473.75;;;10.53;65.25
72636;BME280;60679;48.888;15.544;2023-03-14T09:39:41;94468.38;;;10.63;65.11
72636;BME280;60679;48.888;15.544;2023-03-14T09:42:08;94479.94;;;10.43;65.46
72636;BME280;60679;48.888;15.544;2023-03-14T09:44:45;94489.03;;;10.22;65.93
72636;BME280;60679;48.888;15.544;2023-03-14T09:47:14;94496.25;;;10.06;66.51
72636;BME280;60679;48.888;15.544;2023-03-14T09:49:41;94499.97;;;9.95;66.58
72636;BME280;60679;48.888;15.544;2023-03-14T09:52:35;94504.53;;;9.84;66.85
72636;BME280;60679;48.888;15.544;2023-03-14T09:55:11;94529.56;;;9.80;67.06
72636;BME280;60679;48.888;15.544;2023-03-14T09:57:39;94540.59;;;9.73;67.00
72636;BME280;60679;48.888;15.544;2023-03-14T10:00:27;94527.09;;;9.73;66.93
72636;BME280;60679;48.888;15.544;2023-03-14T10:05:42;94539.66;;;9.58;67.11
72636;BME280;60679;48.888;15.544;2023-03-14T10:08:11;94523.34;;;9.38;67.51
72636;BME280;60679;48.888;15.544;2023-03-14T10:10:37;94515.72;;;9.24;67.63
72636;BME280;60679;48.888;15.544;2023-03-14T10:15:40;94511.59;;;9.12;67.91
72636;BME280;60679;48.888;15.544;2023-03-14T10:18:11;94521.84;;;9.15;67.86
72636;BME280;60679;48.888;15.544;2023-03-14T10:20:45;94531.88;;;9.19;67.62
72636;BME280;60679;48.888;15.544;2023-03-14T10:25:40;94520.13;;;9.36;67.31
72636;BME280;60679;48.888;15.544;2023-03-14T10:28:23;94519.97;;;9.52;66.98
72636;BME280;60679;48.888;15.544;2023-03-14T10:30:49;94525.19;;;9.74;66.84
72636;BME280;60679;48.888;15.544;2023-03-14T10:33:21;94532.00;;;9.81;66.60
72636;BME280;60679;48.888;15.544;2023-03-14T10:38:25;94534.22;;;9.95;66.49
72636;BME280;60679;48.888;15.544;2023-03-14T10:40:53;94544.47;;;9.98;66.63
72636;BME280;60679;48.888;15.544;2023-03-14T10:43:22;94538.03;;;10.04;66.50
72636;BME280;60679;48.888;15.544;2023-03-14T10:46:13;94543.50;;;10.14;66.38
72636;BME280;60679;48.888;15.544;2023-03-14T10:48:39;94542.09;;;10.11;66.28
72636;BME280;60679;48.888;15.544;2023-03-14T10:54:21;94545.53;;;9.97;66.58
72636;BME280;60679;48.888;15.544;2023-03-14T10:57:04;94551.38;;;9.73;67.01
72636;BME280;60679;48.888;15.544;2023-03-14T10:59:36;94547.53;;;9.64;66.75
72636;BME280;60679;48.888;15.544;2023-03-14T11:05:08;94543.91;;;9.49;66.84
72636;BME280;60679;48.888;15.544;2023-03-14T11:21:24;94528.34;;;9.19;66.56
72636;BME280;60679;48.888;15.544;2023-03-14T11:24:01;94520.63;;;9.33;66.43
72636;BME280;60679;48.888;15.544;2023-03-14T11:26:37;94518.00;;;9.43;66.56
72636;BME280;60679;48.888;15.544;2023-03-14T11:29:21;94515.06;;;9.44;66.84
72636;BME280;60679;48.888;15.544;2023-03-14T11:31:53;94506.47;;;9.47;66.86
72636;BME280;60679;48.888;15.544;2023-03-14T11:34:36;94502.47;;;9.55;66.92
72636;BME280;60679;48.888;15.544;2023-03-14T11:37:14;94504.44;;;9.69;66.69
72636;BME280;60679;48.888;15.544;2023-03-14T11:39:46;94515.31;;;9.84;66.59
72636;BME280;60679;48.888;15.544;2023-03-14T11:42:17;94525.56;;;9.88;66.44
72636;BME280;60679;48.888;15.544;2023-03-14T11:44:48;94533.91;;;9.86;66.41
72636;BME280;60679;48.888;15.544;2023-03-14T11:47:24;94528.78;;;9.84;66.28
72636;BME280;60679;48.888;15.544;2023-03-14T11:50:21;94521.22;;;9.81;66.29
72636;BME280;60679;48.888;15.544;2023-03-14T11:52:52;94515.53;;;9.78;66.47
72636;BME280;60679;48.888;15.544;2023-03-14T11:55:24;94508.81;;;9.80;66.36
72636;BME280;60679;48.888;15.544;2023-03-14T11:57:52;94503.19;;;9.87;66.07
72636;BME280;60679;48.888;15.544;2023-03-14T12:00:23;94504.03;;;10.03;65.75
72636;BME280;60679;48.888;15.544;2023-03-14T12:03:13;94500.59;;;10.12;65.59
72636;BME280;60679;48.888;15.544;2023-03-14T12:08:29;94503.34;;;10.22;65.63
72636;BME280;60679;48.888;15.544;2023-03-14T12:11:03;94503.09;;;10.24;65.25
72636;BME280;60679;48.888;15.544;2023-03-14T12:13:33;94510.69;;;10.42;65.13
72636;BME280;60679;48.888;15.544;2023-03-14T12:16:05;94500.75;;;10.53;64.97
72636;BME280;60679;48.888;15.544;2023-03-14T12:18:36;94502.34;;;10.49;65.11
72636;BME280;60679;48.888;15.544;2023-03-14T12:21:09;94497.47;;;10.46;65.24
72636;BME280;60679;48.888;15.544;2023-03-14T12:23:51;94499.91;;;10.42;65.30
72636;BME280;60679;48.888;15.544;2023-03-14T12:26:26;94499.66;;;10.43;65.27
72636;BME280;60679;48.888;15.544;2023-03-14T12:29:19;94488.56;;;10.40;65.34
72636;BME280;60679;48.888;15.544;2023-03-14T12:31:48;94486.41;;;10.42;65.37
72636;BME280;60679;48.888;15.544;2023-03-14T12:41:53;94490.44;;;10.34;65.85
72636;BME280;60679;48.888;15.544;2023-03-14T12:46:58;94481.53;;;10.39;65.42
72636;BME280;60679;48.888;15.544;2023-03-14T12:49:30;94490.97;;;10.41;65.56
72636;BME280;60679;48.888;15.544;2023-03-14T12:52:00;94490.72;;;10.43;65.26
72636;BME280;60679;48.888;15.544;2023-03-14T12:59:58;94499.69;;;10.69;64.91
72636;BME280;60679;48.888;15.544;2023-03-14T13:12:47;94491.53;;;10.43;65.09
72636;BME280;60679;48.888;15.544;2023-03-14T13:15:26;94496.94;;;10.43;65.05
72636;BME280;60679;48.888;15.544;2023-03-14T13:17:55;94495.59;;;10.46;65.03
72636;BME280;60679;48.888;15.544;2023-03-14T13:20:35;94493.72;;;10.47;64.80
72636;BME280;60679;48.888;15.544;2023-03-14T13:23:02;94492.09;;;10.46;64.91
72636;BME280;60679;48.888;15.544;2023-03-14T13:25:33;94495.84;;;10.39;65.08
72636;BME280;60679;48.888;15.544;2023-03-14T13:27:59;94502.06;;;10.45;64.96
72636;BME280;60679;48.888;15.544;2023-03-14T13:30:28;94498.84;;;10.48;64.64
72636;BME280;60679;48.888;15.544;2023-03-14T13:32:55;94504.75;;;10.45;64.62
72636;BME280;60679;48.888;15.544;2023-03-14T13:35:28;94504.75;;;10.45;64.58
72636;BME280;60679;48.888;15.544;2023-03-14T13:38:03;94506.66;;;10.44;64.73
72636;BME280;60679;48.888;15.544;2023-03-14T13:40:33;94506.69;;;10.50;64.74
72636;BME280;60679;48.888;15.544;2023-03-14T13:48:28;94516.72;;;10.74;64.33
72636;BME280;60679;48.888;15.544;2023-03-14T13:51:00;94511.03;;;10.61;64.83
72636;BME280;60679;48.888;15.544;2023-03-14T13:53:26;94514.25;;;10.53;65.09
72636;BME280;60679;48.888;15.544;2023-03-14T13:55:52;94511.72;;;10.31;65.40
72636;BME280;60679;48.888;15.544;2023-03-14T14:01:14;94510.78;;;10.05;65.66
72636;BME280;60679;48.888;15.544;2023-03-14T14:03:42;94511.31;;;10.02;65.51
72636;BME280;60679;48.888;15.544;2023-03-14T14:06:19;94499.47;;;10.03;65.54
72636;BME280;60679;48.888;15.544;2023-03-14T14:08:46;94492.50;;;10.07;65.27
72636;BME280;60679;48.888;15.544;2023-03-14T14:11:22;94495.19;;;10.07;65.30
72636;BME280;60679;48.888;15.544;2023-03-14T14:13:53;94490.66;;;10.13;65.35